sensor_id;sensor_type;location;lat;lon;timestamp;P1;durP1;ratioP1;P2;durP2;ratioP2
13051;SDS011;6592;47.484;9.726;2023-03-01T00:01:03;16.83;;;7.03;;
13051;SDS011;6592;47.484;9.726;2023-03-01T00:03:34;18.77;;;6.70;;
13051;SDS011;6592;47.484;9.726;2023-03-01T00:06:03;17.93;;;7.30;;
13051;SDS011;6592;47.484;9.726;2023-03-01T00:08:32;15.77;;;6.83;;
13051;SDS011;6592;47.484;9.726;2023-03-01T00:11:02;17.83;;;7.07;;
13051;SDS011;6592;47.484;9.726;2023-03-01T00:13:32;16.40;;;6.27;;
13051;SDS011;6592;47.484;9.726;2023-03-01T00:16:01;15.43;;;6.53;;
13051;SDS011;6592;47.484;9.726;2023-03-01T00:18:32;18.33;;;6.50;;
13051;SDS011;6592;47.484;9.726;2023-03-01T00:21:01;18.00;;;6.80;;
13051;SDS011;6592;47.484;9.726;2023-03-01T00:23:29;20.17;;;7.77;;
13051;SDS011;6592;47.484;9.726;2023-03-01T00:25:58;17.50;;;7.17;;
13051;SDS011;6592;47.484;9.726;2023-03-01T00:28:26;19.30;;;6.80;;
13051;SDS011;6592;47.484;9.726;2023-03-01T00:30:54;16.90;;;7.13;;
13051;SDS011;6592;47.484;9.726;2023-03-01T00:33:23;15.67;;;6.40;;
13051;SDS011;6592;47.484;9.726;2023-03-01T00:35:52;17.30;;;6.70;;
13051;SDS011;6592;47.484;9.726;2023-03-01T00:38:21;16.17;;;6.50;;
13051;SDS011;6592;47.484;9.726;2023-03-01T00:40:49;15.97;;;6.67;;
13051;SDS011;6592;47.484;9.726;2023-03-01T00:43:17;18.77;;;6.93;;
13051;SDS011;6592;47.484;9.726;2023-03-01T00:46:00;17.27;;;6.37;;
13051;SDS011;6592;47.484;9.726;2023-03-01T00:48:28;16.60;;;7.23;;
13051;SDS011;6592;47.484;9.726;2023-03-01T00:50:58;18.90;;;6.50;;
13051;SDS011;6592;47.484;9.726;2023-03-01T00:53:32;16.33;;;6.63;;
13051;SDS011;6592;47.484;9.726;2023-03-01T00:56:01;16.47;;;5.87;;
13051;SDS011;6592;47.484;9.726;2023-03-01T00:58:30;15.73;;;6.97;;
13051;SDS011;6592;47.484;9.726;2023-03-01T01:00:59;19.93;;;6.17;;
13051;SDS011;6592;47.484;9.726;2023-03-01T01:03:27;18.37;;;6.40;;
13051;SDS011;6592;47.484;9.726;2023-03-01T01:05:56;16.20;;;6.67;;
13051;SDS011;6592;47.484;9.726;2023-03-01T01:08:25;19.33;;;7.07;;
13051;SDS011;6592;47.484;9.726;2023-03-01T01:10:53;14.70;;;6.40;;
13051;SDS011;6592;47.484;9.726;2023-03-01T01:13:22;16.17;;;6.40;;
13051;SDS011;6592;47.484;9.726;2023-03-01T01:15:50;17.17;;;6.10;;
13051;SDS011;6592;47.484;9.726;2023-03-01T01:18:18;14.40;;;5.53;;
13051;SDS011;6592;47.484;9.726;2023-03-01T01:20:46;15.83;;;6.43;;
13051;SDS011;6592;47.484;9.726;2023-03-01T01:23:15;13.67;;;5.47;;
13051;SDS011;6592;47.484;9.726;2023-03-01T01:25:44;16.20;;;6.40;;
13051;SDS011;6592;47.484;9.726;2023-03-01T01:28:12;15.80;;;6.07;;
13051;SDS011;6592;47.484;9.726;2023-03-01T01:30:41;18.50;;;6.63;;
13051;SDS011;6592;47.484;9.726;2023-03-01T01:33:10;13.67;;;5.33;;
13051;SDS011;6592;47.484;9.726;2023-03-01T01:35:38;15.20;;;6.27;;
13051;SDS011;6592;47.484;9.726;2023-03-01T01:38:06;16.90;;;5.93;;
13051;SDS011;6592;47.484;9.726;2023-03-01T01:40:34;16.53;;;6.37;;
13051;SDS011;6592;47.484;9.726;2023-03-01T01:43:15;13.30;;;5.73;;
13051;SDS011;6592;47.484;9.726;2023-03-01T01:45:47;17.07;;;6.20;;
13051;SDS011;6592;47.484;9.726;2023-03-01T01:48:16;15.97;;;6.23;;
13051;SDS011;6592;47.484;9.726;2023-03-01T01:50:48;18.70;;;6.07;;
13051;SDS011;6592;47.484;9.726;2023-03-01T01:53:23;18.77;;;6.50;;
13051;SDS011;6592;47.484;9.726;2023-03-01T01:55:55;14.53;;;5.80;;
13051;SDS011;6592;47.484;9.726;2023-03-01T01:58:26;16.23;;;6.13;;
13051;SDS011;6592;47.484;9.726;2023-03-01T02:00:57;15.38;;;5.65;;
13051;SDS011;6592;47.484;9.726;2023-03-01T02:03:27;16.33;;;6.30;;
13051;SDS011;6592;47.484;9.726;2023-03-01T02:06:00;16.70;;;6.07;;
13051;SDS011;6592;47.484;9.726;2023-03-01T02:08:32;16.53;;;6.03;;
13051;SDS011;6592;47.484;9.726;2023-03-01T02:11:05;15.97;;;6.07;;
13051;SDS011;6592;47.484;9.726;2023-03-01T02:13:35;14.23;;;5.70;;
13051;SDS011;6592;47.484;9.726;2023-03-01T02:16:04;15.83;;;6.03;;
13051;SDS011;6592;47.484;9.726;2023-03-01T02:21:08;11.60;;;5.07;;
13051;SDS011;6592;47.484;9.726;2023-03-01T02:23:52;16.70;;;5.80;;
13051;SDS011;6592;47.484;9.726;2023-03-01T02:26:25;15.77;;;6.40;;
13051;SDS011;6592;47.484;9.726;2023-03-01T02:29:02;15.67;;;5.40;;
13051;SDS011;6592;47.484;9.726;2023-03-01T02:31:31;13.43;;;5.72;;
13051;SDS011;6592;47.484;9.726;2023-03-01T02:34:09;19.30;;;6.93;;
13051;SDS011;6592;47.484;9.726;2023-03-01T02:36:40;16.70;;;5.47;;
13051;SDS011;6592;47.484;9.726;2023-03-01T02:39:12;17.47;;;6.10;;
13051;SDS011;6592;47.484;9.726;2023-03-01T02:44:15;14.50;;;5.53;;
13051;SDS011;6592;47.484;9.726;2023-03-01T02:46:44;16.33;;;6.47;;
13051;SDS011;6592;47.484;9.726;2023-03-01T02:51:48;17.53;;;6.97;;
13051;SDS011;6592;47.484;9.726;2023-03-01T02:54:29;15.70;;;5.90;;
13051;SDS011;6592;47.484;9.726;2023-03-01T02:57:04;15.60;;;5.87;;
13051;SDS011;6592;47.484;9.726;2023-03-01T02:59:34;16.83;;;6.10;;
13051;SDS011;6592;47.484;9.726;2023-03-01T03:02:05;16.17;;;6.10;;
13051;SDS011;6592;47.484;9.726;2023-03-01T03:04:34;14.97;;;6.03;;
13051;SDS011;6592;47.484;9.726;2023-03-01T03:07:02;17.53;;;6.57;;
13051;SDS011;6592;47.484;9.726;2023-03-01T03:09:31;17.13;;;6.03;;
13051;SDS011;6592;47.484;9.726;2023-03-01T03:11:59;16.90;;;6.20;;
13051;SDS011;6592;47.484;9.726;2023-03-01T03:14:27;14.90;;;5.73;;
13051;SDS011;6592;47.484;9.726;2023-03-01T03:16:57;13.53;;;5.67;;
13051;SDS011;6592;47.484;9.726;2023-03-01T03:19:25;15.43;;;6.10;;
13051;SDS011;6592;47.484;9.726;2023-03-01T03:21:53;16.67;;;6.47;;
13051;SDS011;6592;47.484;9.726;2023-03-01T03:24:21;18.10;;;6.10;;
13051;SDS011;6592;47.484;9.726;2023-03-01T03:26:50;16.83;;;6.93;;
13051;SDS011;6592;47.484;9.726;2023-03-01T03:29:18;16.33;;;6.37;;
13051;SDS011;6592;47.484;9.726;2023-03-01T03:31:46;15.60;;;6.20;;
13051;SDS011;6592;47.484;9.726;2023-03-01T03:34:16;17.00;;;6.83;;
13051;SDS011;6592;47.484;9.726;2023-03-01T03:36:44;16.70;;;6.23;;
13051;SDS011;6592;47.484;9.726;2023-03-01T03:39:13;16.37;;;6.40;;
13051;SDS011;6592;47.484;9.726;2023-03-01T03:41:41;19.23;;;6.40;;
13051;SDS011;6592;47.484;9.726;2023-03-01T03:44:09;14.80;;;6.10;;
13051;SDS011;6592;47.484;9.726;2023-03-01T03:46:37;15.30;;;5.90;;
13051;SDS011;6592;47.484;9.726;2023-03-01T03:49:05;16.50;;;6.40;;
13051;SDS011;6592;47.484;9.726;2023-03-01T03:51:35;15.70;;;6.43;;
13051;SDS011;6592;47.484;9.726;2023-03-01T03:54:03;16.70;;;6.47;;
13051;SDS011;6592;47.484;9.726;2023-03-01T03:56:32;18.23;;;6.90;;
13051;SDS011;6592;47.484;9.726;2023-03-01T03:59:01;15.63;;;5.77;;
13051;SDS011;6592;47.484;9.726;2023-03-01T04:01:29;16.27;;;6.03;;
13051;SDS011;6592;47.484;9.726;2023-03-01T04:03:57;18.73;;;5.93;;
13051;SDS011;6592;47.484;9.726;2023-03-01T04:06:30;15.47;;;6.20;;
13051;SDS011;6592;47.484;9.726;2023-03-01T04:09:00;17.33;;;6.20;;
13051;SDS011;6592;47.484;9.726;2023-03-01T04:11:29;15.83;;;6.67;;
13051;SDS011;6592;47.484;9.726;2023-03-01T04:13:57;14.97;;;6.17;;
13051;SDS011;6592;47.484;9.726;2023-03-01T04:16:26;13.63;;;5.53;;
13051;SDS011;6592;47.484;9.726;2023-03-01T04:18:55;13.80;;;5.77;;
13051;SDS011;6592;47.484;9.726;2023-03-01T04:21:26;13.43;;;5.17;;
13051;SDS011;6592;47.484;9.726;2023-03-01T04:23:54;13.37;;;5.47;;
13051;SDS011;6592;47.484;9.726;2023-03-01T04:26:24;12.97;;;5.37;;
13051;SDS011;6592;47.484;9.726;2023-03-01T04:28:53;15.97;;;6.00;;
13051;SDS011;6592;47.484;9.726;2023-03-01T04:31:21;15.87;;;6.10;;
13051;SDS011;6592;47.484;9.726;2023-03-01T04:33:50;15.60;;;5.90;;
13051;SDS011;6592;47.484;9.726;2023-03-01T04:36:21;13.77;;;5.63;;
13051;SDS011;6592;47.484;9.726;2023-03-01T04:38:50;13.87;;;5.57;;
13051;SDS011;6592;47.484;9.726;2023-03-01T04:41:19;12.90;;;5.43;;
13051;SDS011;6592;47.484;9.726;2023-03-01T04:43:50;15.70;;;5.20;;
13051;SDS011;6592;47.484;9.726;2023-03-01T04:46:19;14.03;;;5.23;;
13051;SDS011;6592;47.484;9.726;2023-03-01T04:48:48;7.87;;;3.50;;
13051;SDS011;6592;47.484;9.726;2023-03-01T04:51:16;15.63;;;5.60;;
13051;SDS011;6592;47.484;9.726;2023-03-01T04:53:45;12.40;;;4.67;;
13051;SDS011;6592;47.484;9.726;2023-03-01T04:56:13;15.70;;;5.40;;
13051;SDS011;6592;47.484;9.726;2023-03-01T04:58:42;14.17;;;5.30;;
13051;SDS011;6592;47.484;9.726;2023-03-01T05:01:12;14.17;;;5.20;;
13051;SDS011;6592;47.484;9.726;2023-03-01T05:03:43;13.27;;;5.10;;
13051;SDS011;6592;47.484;9.726;2023-03-01T05:06:12;15.57;;;5.20;;
13051;SDS011;6592;47.484;9.726;2023-03-01T05:08:41;15.20;;;5.63;;
13051;SDS011;6592;47.484;9.726;2023-03-01T05:11:10;11.97;;;5.17;;
13051;SDS011;6592;47.484;9.726;2023-03-01T05:13:39;12.07;;;4.53;;
13051;SDS011;6592;47.484;9.726;2023-03-01T05:16:08;15.90;;;5.90;;
13051;SDS011;6592;47.484;9.726;2023-03-01T05:18:39;16.03;;;6.37;;
13051;SDS011;6592;47.484;9.726;2023-03-01T05:21:09;15.03;;;5.93;;
13051;SDS011;6592;47.484;9.726;2023-03-01T05:23:38;13.23;;;5.47;;
13051;SDS011;6592;47.484;9.726;2023-03-01T05:26:07;13.23;;;5.23;;
13051;SDS011;6592;47.484;9.726;2023-03-01T05:28:52;13.40;;;5.53;;
13051;SDS011;6592;47.484;9.726;2023-03-01T05:31:25;12.60;;;5.33;;
13051;SDS011;6592;47.484;9.726;2023-03-01T05:33:55;15.93;;;5.90;;
13051;SDS011;6592;47.484;9.726;2023-03-01T05:36:24;13.33;;;5.63;;
13051;SDS011;6592;47.484;9.726;2023-03-01T05:38:52;16.53;;;5.67;;
13051;SDS011;6592;47.484;9.726;2023-03-01T05:41:20;13.93;;;5.40;;
13051;SDS011;6592;47.484;9.726;2023-03-01T05:43:48;18.47;;;5.70;;
13051;SDS011;6592;47.484;9.726;2023-03-01T05:46:17;14.70;;;5.40;;
13051;SDS011;6592;47.484;9.726;2023-03-01T05:48:45;12.53;;;4.87;;
13051;SDS011;6592;47.484;9.726;2023-03-01T05:51:16;12.97;;;5.43;;
13051;SDS011;6592;47.484;9.726;2023-03-01T05:53:45;15.47;;;6.03;;
13051;SDS011;6592;47.484;9.726;2023-03-01T05:56:13;13.93;;;5.37;;
13051;SDS011;6592;47.484;9.726;2023-03-01T05:58:41;13.30;;;5.13;;
13051;SDS011;6592;47.484;9.726;2023-03-01T06:01:11;17.73;;;6.03;;
13051;SDS011;6592;47.484;9.726;2023-03-01T06:03:40;15.10;;;5.40;;
13051;SDS011;6592;47.484;9.726;2023-03-01T06:06:08;15.57;;;5.40;;
13051;SDS011;6592;47.484;9.726;2023-03-01T06:08:38;13.33;;;5.00;;
13051;SDS011;6592;47.484;9.726;2023-03-01T06:11:06;13.57;;;5.13;;
13051;SDS011;6592;47.484;9.726;2023-03-01T06:13:35;13.10;;;5.13;;
13051;SDS011;6592;47.484;9.726;2023-03-01T06:16:04;12.87;;;4.87;;
13051;SDS011;6592;47.484;9.726;2023-03-01T06:18:33;15.53;;;5.90;;
13051;SDS011;6592;47.484;9.726;2023-03-01T06:21:01;14.83;;;5.30;;
13051;SDS011;6592;47.484;9.726;2023-03-01T06:23:30;13.97;;;5.20;;
13051;SDS011;6592;47.484;9.726;2023-03-01T06:26:04;13.60;;;5.40;;
13051;SDS011;6592;47.484;9.726;2023-03-01T06:28:33;16.23;;;6.17;;
13051;SDS011;6592;47.484;9.726;2023-03-01T06:31:01;14.43;;;5.40;;
13051;SDS011;6592;47.484;9.726;2023-03-01T06:33:30;15.03;;;5.77;;
13051;SDS011;6592;47.484;9.726;2023-03-01T06:35:58;17.63;;;5.90;;
13051;SDS011;6592;47.484;9.726;2023-03-01T06:38:26;12.07;;;4.77;;
13051;SDS011;6592;47.484;9.726;2023-03-01T06:40:54;15.80;;;6.43;;
13051;SDS011;6592;47.484;9.726;2023-03-01T06:43:25;17.57;;;6.30;;
13051;SDS011;6592;47.484;9.726;2023-03-01T06:45:53;17.47;;;5.93;;
13051;SDS011;6592;47.484;9.726;2023-03-01T06:48:21;16.27;;;6.13;;
13051;SDS011;6592;47.484;9.726;2023-03-01T06:50:50;15.33;;;5.43;;
13051;SDS011;6592;47.484;9.726;2023-03-01T06:53:18;12.60;;;5.20;;
13051;SDS011;6592;47.484;9.726;2023-03-01T06:55:46;14.67;;;5.70;;
13051;SDS011;6592;47.484;9.726;2023-03-01T06:58:15;13.53;;;5.50;;
13051;SDS011;6592;47.484;9.726;2023-03-01T07:00:44;13.07;;;5.17;;
13051;SDS011;6592;47.484;9.726;2023-03-01T07:03:13;15.90;;;6.10;;
13051;SDS011;6592;47.484;9.726;2023-03-01T07:05:41;14.70;;;6.20;;
13051;SDS011;6592;47.484;9.726;2023-03-01T07:08:10;16.60;;;6.20;;
13051;SDS011;6592;47.484;9.726;2023-03-01T07:10:39;14.53;;;6.00;;
13051;SDS011;6592;47.484;9.726;2023-03-01T07:13:07;16.23;;;5.20;;
13051;SDS011;6592;47.484;9.726;2023-03-01T07:15:36;16.57;;;5.67;;
13051;SDS011;6592;47.484;9.726;2023-03-01T07:18:06;11.83;;;5.07;;
13051;SDS011;6592;47.484;9.726;2023-03-01T07:20:34;15.63;;;5.50;;
13051;SDS011;6592;47.484;9.726;2023-03-01T07:23:02;16.23;;;6.53;;
13051;SDS011;6592;47.484;9.726;2023-03-01T07:25:32;15.27;;;5.27;;
13051;SDS011;6592;47.484;9.726;2023-03-01T07:28:01;14.23;;;5.40;;
13051;SDS011;6592;47.484;9.726;2023-03-01T07:30:29;13.07;;;5.27;;
13051;SDS011;6592;47.484;9.726;2023-03-01T07:32:57;13.77;;;4.97;;
13051;SDS011;6592;47.484;9.726;2023-03-01T07:35:27;15.50;;;5.57;;
13051;SDS011;6592;47.484;9.726;2023-03-01T07:37:56;12.37;;;5.33;;
13051;SDS011;6592;47.484;9.726;2023-03-01T07:40:24;13.47;;;5.63;;
13051;SDS011;6592;47.484;9.726;2023-03-01T07:42:54;16.40;;;5.17;;
13051;SDS011;6592;47.484;9.726;2023-03-01T07:45:24;14.57;;;5.47;;
13051;SDS011;6592;47.484;9.726;2023-03-01T07:47:53;14.17;;;5.77;;
13051;SDS011;6592;47.484;9.726;2023-03-01T07:50:21;12.10;;;5.53;;
13051;SDS011;6592;47.484;9.726;2023-03-01T07:52:51;14.60;;;5.60;;
13051;SDS011;6592;47.484;9.726;2023-03-01T07:55:19;19.77;;;5.97;;
13051;SDS011;6592;47.484;9.726;2023-03-01T07:57:48;13.23;;;5.30;;
13051;SDS011;6592;47.484;9.726;2023-03-01T08:00:16;13.63;;;5.33;;
13051;SDS011;6592;47.484;9.726;2023-03-01T08:02:45;14.13;;;5.63;;
13051;SDS011;6592;47.484;9.726;2023-03-01T08:05:13;13.60;;;5.47;;
13051;SDS011;6592;47.484;9.726;2023-03-01T08:07:42;16.37;;;6.90;;
13051;SDS011;6592;47.484;9.726;2023-03-01T08:10:12;15.80;;;6.63;;
13051;SDS011;6592;47.484;9.726;2023-03-01T08:12:40;17.33;;;6.30;;
13051;SDS011;6592;47.484;9.726;2023-03-01T08:15:08;14.90;;;5.60;;
13051;SDS011;6592;47.484;9.726;2023-03-01T08:17:37;13.17;;;5.77;;
13051;SDS011;6592;47.484;9.726;2023-03-01T08:20:06;15.00;;;5.20;;
13051;SDS011;6592;47.484;9.726;2023-03-01T08:22:38;16.20;;;5.87;;
13051;SDS011;6592;47.484;9.726;2023-03-01T08:25:07;18.03;;;6.97;;
13051;SDS011;6592;47.484;9.726;2023-03-01T08:27:37;17.13;;;6.80;;
13051;SDS011;6592;47.484;9.726;2023-03-01T08:30:06;14.23;;;5.63;;
13051;SDS011;6592;47.484;9.726;2023-03-01T08:32:36;14.87;;;5.57;;
13051;SDS011;6592;47.484;9.726;2023-03-01T08:35:05;13.47;;;5.87;;
13051;SDS011;6592;47.484;9.726;2023-03-01T08:37:34;14.80;;;5.50;;
13051;SDS011;6592;47.484;9.726;2023-03-01T08:40:02;25.23;;;8.53;;
13051;SDS011;6592;47.484;9.726;2023-03-01T08:42:33;25.70;;;8.77;;
13051;SDS011;6592;47.484;9.726;2023-03-01T08:45:03;18.77;;;6.47;;
13051;SDS011;6592;47.484;9.726;2023-03-01T08:47:32;15.13;;;5.60;;
13051;SDS011;6592;47.484;9.726;2023-03-01T08:50:00;14.27;;;5.43;;
13051;SDS011;6592;47.484;9.726;2023-03-01T08:52:28;16.00;;;5.97;;
13051;SDS011;6592;47.484;9.726;2023-03-01T08:54:57;12.80;;;5.10;;
13051;SDS011;6592;47.484;9.726;2023-03-01T08:57:27;18.97;;;6.40;;
13051;SDS011;6592;47.484;9.726;2023-03-01T08:59:56;14.07;;;5.40;;
13051;SDS011;6592;47.484;9.726;2023-03-01T09:02:25;14.80;;;6.10;;
13051;SDS011;6592;47.484;9.726;2023-03-01T09:04:54;14.33;;;5.60;;
13051;SDS011;6592;47.484;9.726;2023-03-01T09:07:22;14.80;;;5.63;;
13051;SDS011;6592;47.484;9.726;2023-03-01T09:09:54;13.43;;;5.15;;
13051;SDS011;6592;47.484;9.726;2023-03-01T09:12:22;16.30;;;6.07;;
13051;SDS011;6592;47.484;9.726;2023-03-01T09:14:52;16.42;;;5.78;;
13051;SDS011;6592;47.484;9.726;2023-03-01T09:17:20;15.10;;;5.82;;
13051;SDS011;6592;47.484;9.726;2023-03-01T09:19:50;15.63;;;5.63;;
13051;SDS011;6592;47.484;9.726;2023-03-01T09:22:18;17.58;;;7.13;;
13051;SDS011;6592;47.484;9.726;2023-03-01T09:24:46;14.70;;;5.97;;
13051;SDS011;6592;47.484;9.726;2023-03-01T09:27:15;14.07;;;5.55;;
13051;SDS011;6592;47.484;9.726;2023-03-01T09:29:45;12.30;;;5.03;;
13051;SDS011;6592;47.484;9.726;2023-03-01T09:32:13;13.40;;;5.65;;
13051;SDS011;6592;47.484;9.726;2023-03-01T09:34:41;18.35;;;6.38;;
13051;SDS011;6592;47.484;9.726;2023-03-01T09:37:28;20.40;;;9.55;;
13051;SDS011;6592;47.484;9.726;2023-03-01T09:39:56;15.45;;;6.55;;
13051;SDS011;6592;47.484;9.726;2023-03-01T09:42:24;14.07;;;5.72;;
13051;SDS011;6592;47.484;9.726;2023-03-01T09:44:56;12.70;;;5.63;;
13051;SDS011;6592;47.484;9.726;2023-03-01T09:47:28;16.17;;;6.22;;
13051;SDS011;6592;47.484;9.726;2023-03-01T09:50:01;17.15;;;7.30;;
13051;SDS011;6592;47.484;9.726;2023-03-01T09:52:38;13.82;;;5.57;;
13051;SDS011;6592;47.484;9.726;2023-03-01T09:55:10;14.65;;;6.03;;
13051;SDS011;6592;47.484;9.726;2023-03-01T09:57:42;14.63;;;6.40;;
13051;SDS011;6592;47.484;9.726;2023-03-01T10:00:20;14.10;;;5.78;;
13051;SDS011;6592;47.484;9.726;2023-03-01T10:02:57;13.23;;;5.63;;
13051;SDS011;6592;47.484;9.726;2023-03-01T10:11:15;14.15;;;5.75;;
13051;SDS011;6592;47.484;9.726;2023-03-01T10:13:51;15.43;;;5.90;;
13051;SDS011;6592;47.484;9.726;2023-03-01T10:16:27;14.30;;;6.20;;
13051;SDS011;6592;47.484;9.726;2023-03-01T10:19:02;16.58;;;6.10;;
13051;SDS011;6592;47.484;9.726;2023-03-01T10:21:32;12.73;;;5.37;;
13051;SDS011;6592;47.484;9.726;2023-03-01T10:24:10;12.70;;;5.30;;
13051;SDS011;6592;47.484;9.726;2023-03-01T10:26:44;14.40;;;5.65;;
13051;SDS011;6592;47.484;9.726;2023-03-01T10:29:20;13.73;;;5.25;;
13051;SDS011;6592;47.484;9.726;2023-03-01T10:31:53;14.13;;;6.03;;
13051;SDS011;6592;47.484;9.726;2023-03-01T10:34:27;13.25;;;5.55;;
13051;SDS011;6592;47.484;9.726;2023-03-01T10:36:58;14.55;;;6.18;;
13051;SDS011;6592;47.484;9.726;2023-03-01T10:39:37;13.45;;;5.93;;
13051;SDS011;6592;47.484;9.726;2023-03-01T10:42:25;13.00;;;5.97;;
13051;SDS011;6592;47.484;9.726;2023-03-01T10:44:55;15.45;;;5.97;;
13051;SDS011;6592;47.484;9.726;2023-03-01T10:47:24;15.55;;;6.00;;
13051;SDS011;6592;47.484;9.726;2023-03-01T10:49:55;12.63;;;5.53;;
13051;SDS011;6592;47.484;9.726;2023-03-01T10:52:29;13.70;;;5.93;;
13051;SDS011;6592;47.484;9.726;2023-03-01T10:55:03;12.15;;;5.07;;
13051;SDS011;6592;47.484;9.726;2023-03-01T10:57:54;14.00;;;5.77;;
13051;SDS011;6592;47.484;9.726;2023-03-01T11:00:44;14.38;;;5.63;;
13051;SDS011;6592;47.484;9.726;2023-03-01T11:03:16;17.20;;;7.07;;
13051;SDS011;6592;47.484;9.726;2023-03-01T11:05:50;13.30;;;5.97;;
13051;SDS011;6592;47.484;9.726;2023-03-01T11:08:31;14.50;;;6.15;;
13051;SDS011;6592;47.484;9.726;2023-03-01T11:11:16;16.92;;;7.10;;
13051;SDS011;6592;47.484;9.726;2023-03-01T11:13:50;17.35;;;7.65;;
13051;SDS011;6592;47.484;9.726;2023-03-01T11:16:24;14.27;;;6.50;;
13051;SDS011;6592;47.484;9.726;2023-03-01T11:18:56;14.00;;;6.25;;
13051;SDS011;6592;47.484;9.726;2023-03-01T11:21:25;15.20;;;7.00;;
13051;SDS011;6592;47.484;9.726;2023-03-01T11:26:29;15.27;;;6.25;;
13051;SDS011;6592;47.484;9.726;2023-03-01T11:29:00;13.75;;;6.20;;
13051;SDS011;6592;47.484;9.726;2023-03-01T11:31:33;12.85;;;6.22;;
13051;SDS011;6592;47.484;9.726;2023-03-01T11:34:10;12.98;;;5.97;;
13051;SDS011;6592;47.484;9.726;2023-03-01T11:36:41;14.40;;;6.80;;
13051;SDS011;6592;47.484;9.726;2023-03-01T11:39:17;15.02;;;6.55;;
13051;SDS011;6592;47.484;9.726;2023-03-01T11:41:58;15.77;;;7.13;;
13051;SDS011;6592;47.484;9.726;2023-03-01T11:44:44;15.25;;;6.60;;
13051;SDS011;6592;47.484;9.726;2023-03-01T11:47:19;12.52;;;6.25;;
13051;SDS011;6592;47.484;9.726;2023-03-01T11:50:09;12.23;;;6.00;;
13051;SDS011;6592;47.484;9.726;2023-03-01T11:52:47;15.93;;;6.93;;
13051;SDS011;6592;47.484;9.726;2023-03-01T11:58:17;16.25;;;7.00;;
13051;SDS011;6592;47.484;9.726;2023-03-01T12:01:13;14.25;;;6.82;;
13051;SDS011;6592;47.484;9.726;2023-03-01T12:03:53;15.63;;;6.88;;
13051;SDS011;6592;47.484;9.726;2023-03-01T12:06:52;17.10;;;7.40;;
13051;SDS011;6592;47.484;9.726;2023-03-01T12:09:35;17.63;;;7.72;;
13051;SDS011;6592;47.484;9.726;2023-03-01T12:14:49;19.90;;;6.32;;
13051;SDS011;6592;47.484;9.726;2023-03-01T12:17:30;15.95;;;6.72;;
13051;SDS011;6592;47.484;9.726;2023-03-01T12:20:14;17.05;;;7.57;;
13051;SDS011;6592;47.484;9.726;2023-03-01T12:22:53;15.80;;;7.03;;
13051;SDS011;6592;47.484;9.726;2023-03-01T12:25:46;20.63;;;7.60;;
13051;SDS011;6592;47.484;9.726;2023-03-01T12:28:28;16.92;;;7.78;;
13051;SDS011;6592;47.484;9.726;2023-03-01T12:37:23;14.32;;;6.80;;
13051;SDS011;6592;47.484;9.726;2023-03-01T12:40:13;14.35;;;6.68;;
13051;SDS011;6592;47.484;9.726;2023-03-01T12:42:55;14.98;;;6.95;;
13051;SDS011;6592;47.484;9.726;2023-03-01T12:45:35;19.50;;;6.75;;
13051;SDS011;6592;47.484;9.726;2023-03-01T12:48:23;14.57;;;6.78;;
13051;SDS011;6592;47.484;9.726;2023-03-01T12:50:58;16.15;;;7.20;;
13051;SDS011;6592;47.484;9.726;2023-03-01T12:53:32;16.08;;;7.50;;
13051;SDS011;6592;47.484;9.726;2023-03-01T12:56:05;15.73;;;7.07;;
13051;SDS011;6592;47.484;9.726;2023-03-01T13:01:19;16.73;;;7.00;;
13051;SDS011;6592;47.484;9.726;2023-03-01T13:04:00;18.52;;;7.63;;
13051;SDS011;6592;47.484;9.726;2023-03-01T13:06:40;15.52;;;6.85;;
13051;SDS011;6592;47.484;9.726;2023-03-01T13:09:17;16.15;;;7.45;;
13051;SDS011;6592;47.484;9.726;2023-03-01T13:11:50;17.77;;;8.23;;
13051;SDS011;6592;47.484;9.726;2023-03-01T13:14:34;17.80;;;8.15;;
13051;SDS011;6592;47.484;9.726;2023-03-01T13:17:07;16.80;;;7.97;;
13051;SDS011;6592;47.484;9.726;2023-03-01T13:19:59;19.38;;;8.50;;
13051;SDS011;6592;47.484;9.726;2023-03-01T13:22:31;18.83;;;8.45;;
13051;SDS011;6592;47.484;9.726;2023-03-01T13:25:15;15.90;;;7.65;;
13051;SDS011;6592;47.484;9.726;2023-03-01T13:27:45;18.38;;;8.60;;
13051;SDS011;6592;47.484;9.726;2023-03-01T13:36:07;17.00;;;7.90;;
13051;SDS011;6592;47.484;9.726;2023-03-01T13:38:44;17.98;;;8.18;;
13051;SDS011;6592;47.484;9.726;2023-03-01T13:41:16;17.13;;;8.13;;
13051;SDS011;6592;47.484;9.726;2023-03-01T13:43:45;18.00;;;8.85;;
13051;SDS011;6592;47.484;9.726;2023-03-01T13:46:16;17.33;;;8.23;;
13051;SDS011;6592;47.484;9.726;2023-03-01T13:48:49;16.02;;;8.48;;
13051;SDS011;6592;47.484;9.726;2023-03-01T13:51:20;16.70;;;8.40;;
13051;SDS011;6592;47.484;9.726;2023-03-01T13:53:52;17.27;;;8.15;;
13051;SDS011;6592;47.484;9.726;2023-03-01T13:56:25;17.85;;;8.50;;
13051;SDS011;6592;47.484;9.726;2023-03-01T13:59:01;16.75;;;8.50;;
13051;SDS011;6592;47.484;9.726;2023-03-01T14:01:32;17.60;;;8.77;;
13051;SDS011;6592;47.484;9.726;2023-03-01T14:04:03;16.63;;;8.43;;
13051;SDS011;6592;47.484;9.726;2023-03-01T14:06:45;16.52;;;8.35;;
13051;SDS011;6592;47.484;9.726;2023-03-01T14:09:15;18.35;;;8.75;;
13051;SDS011;6592;47.484;9.726;2023-03-01T14:14:57;20.98;;;8.02;;
13051;SDS011;6592;47.484;9.726;2023-03-01T14:17:31;16.83;;;8.50;;
13051;SDS011;6592;47.484;9.726;2023-03-01T14:20:12;17.98;;;8.57;;
13051;SDS011;6592;47.484;9.726;2023-03-01T14:22:45;17.88;;;8.05;;
13051;SDS011;6592;47.484;9.726;2023-03-01T14:25:25;17.10;;;8.15;;
13051;SDS011;6592;47.484;9.726;2023-03-01T14:27:59;18.20;;;8.30;;
13051;SDS011;6592;47.484;9.726;2023-03-01T14:30:32;14.63;;;7.25;;
13051;SDS011;6592;47.484;9.726;2023-03-01T14:33:04;20.42;;;9.40;;
13051;SDS011;6592;47.484;9.726;2023-03-01T14:35:35;18.55;;;8.45;;
13051;SDS011;6592;47.484;9.726;2023-03-01T14:38:03;17.95;;;8.35;;
13051;SDS011;6592;47.484;9.726;2023-03-01T14:40:33;16.60;;;7.75;;
13051;SDS011;6592;47.484;9.726;2023-03-01T14:43:09;19.38;;;8.63;;
13051;SDS011;6592;47.484;9.726;2023-03-01T14:45:42;21.20;;;8.32;;
13051;SDS011;6592;47.484;9.726;2023-03-01T14:48:15;18.30;;;7.70;;
13051;SDS011;6592;47.484;9.726;2023-03-01T14:50:44;17.80;;;7.47;;
13051;SDS011;6592;47.484;9.726;2023-03-01T14:53:15;17.40;;;7.32;;
13051;SDS011;6592;47.484;9.726;2023-03-01T14:55:46;20.08;;;8.18;;
13051;SDS011;6592;47.484;9.726;2023-03-01T14:58:20;17.42;;;7.47;;
13051;SDS011;6592;47.484;9.726;2023-03-01T15:00:51;17.45;;;7.45;;
13051;SDS011;6592;47.484;9.726;2023-03-01T15:03:25;20.08;;;8.20;;
13051;SDS011;6592;47.484;9.726;2023-03-01T15:05:57;17.70;;;7.72;;
13051;SDS011;6592;47.484;9.726;2023-03-01T15:08:28;19.10;;;8.77;;
13051;SDS011;6592;47.484;9.726;2023-03-01T15:11:00;18.65;;;7.95;;
13051;SDS011;6592;47.484;9.726;2023-03-01T15:13:34;15.90;;;7.15;;
13051;SDS011;6592;47.484;9.726;2023-03-01T15:16:06;15.48;;;6.95;;
13051;SDS011;6592;47.484;9.726;2023-03-01T15:18:42;16.10;;;6.90;;
13051;SDS011;6592;47.484;9.726;2023-03-01T15:21:16;17.15;;;7.38;;
13051;SDS011;6592;47.484;9.726;2023-03-01T15:23:50;15.63;;;7.25;;
13051;SDS011;6592;47.484;9.726;2023-03-01T15:26:22;17.92;;;6.38;;
13051;SDS011;6592;47.484;9.726;2023-03-01T15:28:54;17.40;;;6.95;;
13051;SDS011;6592;47.484;9.726;2023-03-01T15:31:25;17.27;;;7.22;;
13051;SDS011;6592;47.484;9.726;2023-03-01T15:34:07;17.40;;;7.25;;
13051;SDS011;6592;47.484;9.726;2023-03-01T15:36:41;18.58;;;7.25;;
13051;SDS011;6592;47.484;9.726;2023-03-01T15:39:27;18.08;;;7.50;;
13051;SDS011;6592;47.484;9.726;2023-03-01T15:44:35;16.70;;;6.63;;
13051;SDS011;6592;47.484;9.726;2023-03-01T15:47:21;18.40;;;6.63;;
13051;SDS011;6592;47.484;9.726;2023-03-01T15:49:53;17.95;;;7.28;;
13051;SDS011;6592;47.484;9.726;2023-03-01T15:52:23;15.30;;;6.85;;
13051;SDS011;6592;47.484;9.726;2023-03-01T15:54:56;18.98;;;6.95;;
13051;SDS011;6592;47.484;9.726;2023-03-01T15:57:26;18.40;;;7.45;;